createdAt,value
2023-05-05T00:02:25.292Z,61.00
2023-05-05T00:07:47.070Z,60.96
2023-05-05T00:13:09.147Z,60.37
2023-05-05T00:18:31.367Z,60.77
2023-05-05T00:23:53.379Z,62.03
2023-05-05T00:29:15.619Z,62.15
2023-05-05T00:34:37.349Z,62.54
2023-05-05T00:39:59.222Z,63.53
2023-05-05T00:45:21.077Z,64.28
2023-05-05T00:50:43.828Z,64.75
2023-05-05T00:56:06.610Z,64.47
2023-05-05T01:01:28.442Z,64.37
2023-05-05T01:07:13.682Z,65.07
2023-05-05T01:12:53.533Z,65.09
2023-05-05T01:18:30.716Z,65.19
2023-05-05T01:24:20.288Z,65.75
2023-05-05T01:30:00.857Z,65.91
2023-05-05T01:35:28.709Z,65.96
2023-05-05T01:40:58.506Z,66.06
2023-05-05T01:46:23.663Z,65.20
2023-05-05T01:51:47.878Z,65.39
2023-05-05T01:57:11.272Z,65.85
2023-05-05T02:02:35.950Z,66.87
2023-05-05T02:08:00.033Z,67.10
2023-05-05T02:13:24.644Z,67.36
2023-05-05T02:18:47.424Z,68.08
2023-05-05T02:24:09.330Z,68.75
2023-05-05T02:29:44.834Z,69.06
2023-05-05T02:35:24.288Z,68.71
2023-05-05T02:40:48.130Z,69.05
2023-05-05T02:46:10.019Z,68.53
2023-05-05T02:51:32.522Z,68.42
2023-05-05T02:56:57.167Z,68.52
2023-05-05T03:02:33.309Z,70.05
2023-05-05T03:08:03.142Z,69.64
2023-05-05T03:13:27.907Z,70.31
2023-05-05T03:18:50.952Z,70.26
2023-05-05T03:24:19.909Z,70.43
2023-05-05T03:29:41.802Z,70.23
2023-05-05T03:35:03.619Z,71.18
2023-05-05T03:40:36.309Z,70.28
2023-05-05T03:46:02.483Z,69.59
2023-05-05T03:51:25.178Z,70.72
2023-05-05T03:56:46.999Z,72.09
2023-05-05T04:02:08.725Z,71.31
2023-05-05T04:07:30.473Z,72.33
2023-05-05T04:12:52.296Z,71.86
2023-05-05T04:18:14.186Z,70.58
2023-05-05T04:23:35.880Z,70.79
2023-05-05T04:28:57.630Z,72.16
2023-05-05T04:34:19.352Z,71.53
2023-05-05T04:39:41.546Z,72.35
2023-05-05T04:45:03.679Z,73.08
2023-05-05T04:50:25.438Z,71.73
2023-05-05T04:55:47.250Z,71.58
2023-05-05T05:01:08.983Z,70.70
2023-05-05T05:06:30.671Z,70.38
2023-05-05T05:11:52.376Z,70.46
2023-05-05T05:17:14.348Z,71.06
2023-05-05T05:22:38.635Z,73.23
2023-05-05T05:28:09.424Z,72.83
2023-05-05T05:33:32.567Z,73.99
2023-05-05T05:38:54.300Z,72.51
2023-05-05T05:44:15.970Z,73.27
2023-05-05T05:49:37.657Z,75.71
2023-05-05T05:54:59.387Z,75.70
2023-05-05T06:00:21.233Z,75.19
2023-05-05T06:05:44.909Z,73.19
2023-05-05T06:11:06.607Z,72.04
2023-05-05T06:16:28.455Z,71.41
2023-05-05T06:21:50.857Z,71.63
2023-05-05T06:27:12.615Z,70.91
2023-05-05T06:32:34.589Z,70.35
2023-05-05T06:37:56.333Z,70.55
2023-05-05T06:43:18.138Z,70.93
2023-05-05T06:48:39.869Z,70.74
2023-05-05T06:54:01.571Z,71.29
2023-05-05T06:59:23.346Z,71.18
2023-05-05T07:04:45.051Z,69.76
2023-05-05T07:10:07.686Z,70.12
2023-05-05T07:15:29.973Z,69.80
2023-05-05T07:20:51.741Z,70.18
2023-05-05T07:26:14.560Z,70.11
2023-05-05T07:31:36.321Z,70.65
2023-05-05T07:36:58.081Z,70.84
2023-05-05T07:42:21.040Z,70.38
2023-05-05T07:47:42.836Z,69.31
2023-05-05T07:53:13.731Z,70.10
2023-05-05T07:58:36.894Z,70.21
2023-05-05T08:03:58.656Z,72.10
2023-05-05T08:09:20.417Z,73.75
2023-05-05T08:14:42.472Z,78.87
2023-05-05T08:20:04.606Z,83.43
2023-05-05T08:25:27.033Z,82.65
2023-05-05T08:30:49.543Z,84.01
2023-05-05T08:36:11.593Z,84.76
2023-05-05T08:41:33.411Z,85.33
2023-05-05T08:46:56.678Z,82.45
2023-05-05T08:52:23.343Z,81.09
2023-05-05T08:57:53.019Z,79.72
2023-05-05T09:03:16.150Z,77.00
2023-05-05T09:08:38.710Z,76.87
2023-05-05T09:14:01.754Z,77.74
2023-05-05T09:19:23.615Z,76.96
2023-05-05T09:24:55.049Z,76.75
2023-05-05T09:30:23.303Z,75.65
2023-05-05T09:35:53.673Z,75.12
2023-05-05T09:41:15.906Z,74.67
2023-05-05T09:46:37.685Z,75.07
2023-05-05T09:52:11.318Z,76.09
2023-05-05T09:57:33.960Z,73.42
2023-05-05T10:03:02.749Z,72.33
2023-05-05T10:08:29.274Z,73.57
2023-05-05T10:13:51.141Z,71.33
2023-05-05T10:19:15.110Z,72.60
2023-05-05T10:24:50.728Z,70.61
2023-05-05T10:30:20.455Z,69.84
2023-05-05T10:35:44.341Z,70.39
2023-05-05T10:41:06.691Z,70.98
2023-05-05T10:46:29.122Z,69.01
2023-05-05T10:52:17.265Z,69.00
2023-05-05T10:57:43.790Z,68.90
2023-05-05T11:03:17.721Z,68.80
2023-05-05T11:08:45.518Z,67.71
2023-05-05T11:14:22.280Z,69.64
2023-05-05T11:19:44.483Z,71.30
2023-05-05T11:25:37.506Z,71.46
2023-05-05T11:31:02.893Z,71.82
2023-05-05T11:36:40.441Z,72.07
2023-05-05T11:42:14.995Z,68.04
2023-05-05T11:47:36.750Z,65.45
2023-05-05T11:52:58.666Z,62.84
2023-05-05T11:58:20.980Z,63.63
2023-05-05T12:03:45.326Z,65.05
2023-05-05T12:09:15.537Z,61.56
2023-05-05T12:14:47.325Z,61.92
2023-05-05T12:20:10.443Z,61.69
2023-05-05T12:25:37.185Z,63.11
2023-05-05T12:30:59.441Z,61.52
2023-05-05T12:36:21.348Z,59.71
2023-05-05T12:41:43.300Z,59.87
2023-05-05T12:47:05.553Z,61.49
2023-05-05T12:52:44.109Z,60.79
2023-05-05T12:58:06.387Z,61.16
2023-05-05T13:03:28.262Z,61.48
2023-05-05T13:08:50.133Z,63.44
2023-05-05T13:14:11.819Z,61.35
2023-05-05T13:19:35.649Z,61.60
2023-05-05T13:24:57.417Z,58.72
2023-05-05T13:30:20.586Z,60.05
2023-05-05T13:35:42.302Z,60.50
2023-05-05T13:41:04.152Z,58.67
2023-05-05T13:46:26.017Z,58.27
2023-05-05T13:51:47.818Z,59.06
2023-05-05T13:57:11.052Z,57.72
2023-05-05T14:02:33.162Z,58.47
2023-05-05T14:07:55.482Z,58.42
2023-05-05T14:13:17.361Z,58.62
2023-05-05T14:18:39.275Z,58.46
2023-05-05T14:24:01.005Z,59.20
2023-05-05T14:29:22.761Z,59.07
2023-05-05T14:34:45.082Z,59.83
2023-05-05T14:40:07.604Z,60.38
2023-05-05T14:45:29.655Z,61.16
2023-05-05T14:50:51.500Z,59.91
2023-05-05T14:56:14.180Z,60.19
2023-05-05T15:01:36.428Z,59.23
2023-05-05T15:06:58.244Z,58.84
2023-05-05T15:12:19.946Z,59.42
2023-05-05T15:17:41.886Z,59.20
2023-05-05T15:23:04.206Z,59.76
2023-05-05T15:28:25.954Z,60.04
2023-05-05T15:33:49.417Z,59.98
2023-05-05T15:39:11.379Z,59.47
2023-05-05T15:44:33.109Z,59.56
2023-05-05T15:49:55.731Z,59.21
2023-05-05T15:55:17.549Z,60.66
2023-05-05T16:00:39.633Z,66.98
2023-05-05T16:06:01.323Z,80.34
2023-05-05T16:11:23.902Z,85.18
2023-05-05T16:16:45.797Z,90.24
2023-05-05T16:22:07.700Z,93.87
2023-05-05T16:27:29.492Z,97.70
2023-05-05T16:32:51.771Z,99.27
2023-05-05T16:38:13.795Z,100.00
2023-05-05T16:43:38.472Z,100.00
2023-05-05T16:49:00.225Z,100.00
2023-05-05T16:54:21.924Z,100.00
2023-05-05T16:59:43.727Z,100.00
2023-05-05T17:05:06.159Z,100.00
2023-05-05T17:10:28.108Z,100.00
2023-05-05T17:15:51.282Z,100.00
2023-05-05T17:21:13.046Z,100.00
2023-05-05T17:26:35.094Z,100.00
2023-05-05T17:31:57.025Z,100.00
2023-05-05T17:37:18.778Z,100.00
2023-05-05T17:42:40.605Z,99.27
2023-05-05T17:48:02.311Z,100.00
2023-05-05T17:53:24.225Z,100.00
2023-05-05T17:58:45.936Z,100.00
2023-05-05T18:04:07.638Z,100.00
2023-05-05T18:09:29.363Z,100.00
2023-05-05T18:14:51.081Z,100.00
2023-05-05T18:20:12.930Z,100.00
2023-05-05T18:25:34.734Z,100.00
2023-05-05T18:30:56.745Z,100.00
2023-05-05T18:36:18.581Z,100.00
2023-05-05T18:41:40.894Z,100.00
2023-05-05T18:47:02.726Z,100.00
2023-05-05T18:52:24.726Z,100.00
2023-05-05T18:57:46.452Z,100.00
2023-05-05T19:03:08.181Z,100.00
2023-05-05T19:08:30.010Z,100.00
2023-05-05T19:13:51.973Z,100.00
2023-05-05T19:19:13.958Z,100.00
2023-05-05T19:24:35.711Z,100.00
2023-05-05T19:29:57.420Z,100.00
2023-05-05T19:35:19.199Z,100.00
2023-05-05T19:40:41.374Z,100.00
2023-05-05T19:46:03.174Z,100.00
2023-05-05T19:51:25.005Z,100.00
2023-05-05T19:56:46.862Z,100.00
2023-05-05T20:02:10.074Z,100.00
2023-05-05T20:07:31.817Z,100.00
2023-05-05T20:12:53.950Z,100.00
2023-05-05T20:18:15.676Z,100.00
2023-05-05T20:23:37.475Z,100.00
2023-05-05T20:28:59.194Z,100.00
2023-05-05T20:34:23.987Z,100.00
2023-05-05T20:39:47.217Z,100.00
2023-05-05T20:45:10.595Z,100.00
2023-05-05T20:50:32.461Z,100.00
2023-05-05T20:55:54.188Z,100.00
2023-05-05T21:01:16.015Z,100.00
2023-05-05T21:06:38.173Z,100.00
2023-05-05T21:11:59.982Z,100.00
2023-05-05T21:17:21.725Z,100.00
2023-05-05T21:22:43.660Z,100.00
2023-05-05T21:28:05.353Z,100.00
2023-05-05T21:33:27.233Z,100.00
2023-05-05T21:38:49.362Z,100.00
2023-05-05T21:44:11.185Z,100.00
2023-05-05T21:49:32.969Z,100.00
2023-05-05T21:54:54.671Z,100.00
2023-05-05T22:00:16.773Z,100.00
2023-05-05T22:05:38.650Z,100.00
2023-05-05T22:11:00.473Z,100.00
2023-05-05T22:16:22.203Z,100.00
2023-05-05T22:21:44.015Z,100.00
2023-05-05T22:27:05.929Z,100.00
2023-05-05T22:32:27.675Z,100.00
2023-05-05T22:37:49.385Z,100.00
2023-05-05T22:43:11.134Z,100.00
2023-05-05T22:48:32.875Z,100.00
2023-05-05T22:53:54.749Z,100.00
2023-05-05T22:59:16.510Z,100.00
2023-05-05T23:04:38.281Z,100.00
2023-05-05T23:10:00.172Z,100.00
2023-05-05T23:15:21.911Z,100.00
2023-05-05T23:20:43.693Z,100.00
2023-05-05T23:26:05.404Z,100.00
2023-05-05T23:31:27.321Z,100.00
2023-05-05T23:36:49.063Z,100.00
2023-05-05T23:42:10.773Z,100.00
2023-05-05T23:47:32.591Z,100.00
2023-05-05T23:52:54.322Z,100.00
2023-05-05T23:58:16.016Z,100.00
